sensor_id;sensor_type;location;lat;lon;timestamp;temperature;humidity
44121;DHT22;29783;52.504;13.478;2023-05-20T00:01:16;11.30;75.90
44121;DHT22;29783;52.504;13.478;2023-05-20T00:03:42;11.30;76.00
44121;DHT22;29783;52.504;13.478;2023-05-20T00:06:07;11.20;76.20
44121;DHT22;29783;52.504;13.478;2023-05-20T00:08:33;11.20;76.50
44121;DHT22;29783;52.504;13.478;2023-05-20T00:10:58;11.20;76.70
44121;DHT22;29783;52.504;13.478;2023-05-20T00:13:24;11.20;77.00
44121;DHT22;29783;52.504;13.478;2023-05-20T00:15:51;11.10;77.10
44121;DHT22;29783;52.504;13.478;2023-05-20T00:18:17;11.10;77.30
44121;DHT22;29783;52.504;13.478;2023-05-20T00:20:43;11.00;77.60
44121;DHT22;29783;52.504;13.478;2023-05-20T00:23:09;11.00;77.90
44121;DHT22;29783;52.504;13.478;2023-05-20T00:25:34;10.90;78.30
44121;DHT22;29783;52.504;13.478;2023-05-20T00:28:00;10.90;78.40
44121;DHT22;29783;52.504;13.478;2023-05-20T00:30:26;10.90;78.60
44121;DHT22;29783;52.504;13.478;2023-05-20T00:32:51;10.80;78.90
44121;DHT22;29783;52.504;13.478;2023-05-20T00:35:17;10.80;79.00
44121;DHT22;29783;52.504;13.478;2023-05-20T00:37:42;10.70;79.40
44121;DHT22;29783;52.504;13.478;2023-05-20T00:40:08;10.80;79.70
44121;DHT22;29783;52.504;13.478;2023-05-20T00:42:34;10.70;79.80
44121;DHT22;29783;52.504;13.478;2023-05-20T00:45:00;10.80;80.00
44121;DHT22;29783;52.504;13.478;2023-05-20T00:47:28;10.80;80.00
44121;DHT22;29783;52.504;13.478;2023-05-20T00:49:55;10.70;80.30
44121;DHT22;29783;52.504;13.478;2023-05-20T00:52:21;10.70;80.40
44121;DHT22;29783;52.504;13.478;2023-05-20T00:54:48;10.60;80.60
44121;DHT22;29783;52.504;13.478;2023-05-20T00:57:15;10.60;80.90
44121;DHT22;29783;52.504;13.478;2023-05-20T00:59:41;10.60;81.20
44121;DHT22;29783;52.504;13.478;2023-05-20T01:02:07;10.60;81.20
44121;DHT22;29783;52.504;13.478;2023-05-20T01:04:33;10.50;81.40
44121;DHT22;29783;52.504;13.478;2023-05-20T01:07:00;10.50;81.50
44121;DHT22;29783;52.504;13.478;2023-05-20T01:09:27;10.50;81.80
44121;DHT22;29783;52.504;13.478;2023-05-20T01:14:33;10.50;82.20
44121;DHT22;29783;52.504;13.478;2023-05-20T01:17:01;10.40;82.50
44121;DHT22;29783;52.504;13.478;2023-05-20T01:19:43;10.30;82.60
44121;DHT22;29783;52.504;13.478;2023-05-20T01:22:10;10.30;82.60
44121;DHT22;29783;52.504;13.478;2023-05-20T01:24:44;10.30;83.00
44121;DHT22;29783;52.504;13.478;2023-05-20T01:27:12;10.20;83.20
44121;DHT22;29783;52.504;13.478;2023-05-20T01:29:39;10.30;83.30
44121;DHT22;29783;52.504;13.478;2023-05-20T01:32:10;10.30;83.10
44121;DHT22;29783;52.504;13.478;2023-05-20T01:34:36;10.30;83.00
44121;DHT22;29783;52.504;13.478;2023-05-20T01:37:04;10.30;83.30
44121;DHT22;29783;52.504;13.478;2023-05-20T01:39:32;10.30;83.40
44121;DHT22;29783;52.504;13.478;2023-05-20T01:42:00;10.20;83.60
44121;DHT22;29783;52.504;13.478;2023-05-20T01:44:27;10.20;83.70
44121;DHT22;29783;52.504;13.478;2023-05-20T01:46:53;10.20;83.60
44121;DHT22;29783;52.504;13.478;2023-05-20T01:49:18;10.20;83.80
44121;DHT22;29783;52.504;13.478;2023-05-20T01:51:44;10.20;84.00
44121;DHT22;29783;52.504;13.478;2023-05-20T01:54:11;10.10;84.00
44121;DHT22;29783;52.504;13.478;2023-05-20T01:56:37;10.20;84.00
44121;DHT22;29783;52.504;13.478;2023-05-20T01:59:02;10.10;84.10
44121;DHT22;29783;52.504;13.478;2023-05-20T02:01:29;10.10;84.30
44121;DHT22;29783;52.504;13.478;2023-05-20T02:03:55;10.10;84.50
44121;DHT22;29783;52.504;13.478;2023-05-20T02:06:20;10.10;84.40
44121;DHT22;29783;52.504;13.478;2023-05-20T02:08:46;10.10;84.30
44121;DHT22;29783;52.504;13.478;2023-05-20T02:11:12;10.10;84.50
44121;DHT22;29783;52.504;13.478;2023-05-20T02:13:38;10.10;84.50
44121;DHT22;29783;52.504;13.478;2023-05-20T02:16:04;10.00;84.60
44121;DHT22;29783;52.504;13.478;2023-05-20T02:18:29;10.00;84.70
44121;DHT22;29783;52.504;13.478;2023-05-20T02:21:03;10.00;84.70
44121;DHT22;29783;52.504;13.478;2023-05-20T02:23:30;10.10;84.60
44121;DHT22;29783;52.504;13.478;2023-05-20T02:25:57;10.10;84.40
44121;DHT22;29783;52.504;13.478;2023-05-20T02:28:23;10.10;84.40
44121;DHT22;29783;52.504;13.478;2023-05-20T02:30:49;10.00;84.60
44121;DHT22;29783;52.504;13.478;2023-05-20T02:33:16;10.00;84.70
44121;DHT22;29783;52.504;13.478;2023-05-20T02:35:41;10.10;84.50
44121;DHT22;29783;52.504;13.478;2023-05-20T02:38:07;10.20;84.40
44121;DHT22;29783;52.504;13.478;2023-05-20T02:40:33;10.20;84.10
44121;DHT22;29783;52.504;13.478;2023-05-20T02:42:59;10.30;83.90
44121;DHT22;29783;52.504;13.478;2023-05-20T02:58:22;10.70;82.40
44121;DHT22;29783;52.504;13.478;2023-05-20T03:00:51;10.80;82.00
44121;DHT22;29783;52.504;13.478;2023-05-20T03:03:16;10.90;81.80
44121;DHT22;29783;52.504;13.478;2023-05-20T03:05:42;11.00;81.50
44121;DHT22;29783;52.504;13.478;2023-05-20T03:08:10;11.00;81.30
44121;DHT22;29783;52.504;13.478;2023-05-20T03:10:37;11.00;81.20
44121;DHT22;29783;52.504;13.478;2023-05-20T03:13:07;11.00;81.30
44121;DHT22;29783;52.504;13.478;2023-05-20T03:15:34;11.10;81.30
44121;DHT22;29783;52.504;13.478;2023-05-20T03:18:00;11.00;81.30
44121;DHT22;29783;52.504;13.478;2023-05-20T03:20:26;11.10;81.00
44121;DHT22;29783;52.504;13.478;2023-05-20T03:22:53;11.00;81.00
44121;DHT22;29783;52.504;13.478;2023-05-20T03:25:21;11.10;81.10
44121;DHT22;29783;52.504;13.478;2023-05-20T03:27:46;11.10;81.10
44121;DHT22;29783;52.504;13.478;2023-05-20T03:30:12;11.10;81.00
44121;DHT22;29783;52.504;13.478;2023-05-20T03:32:38;11.10;81.00
44121;DHT22;29783;52.504;13.478;2023-05-20T03:35:05;11.20;80.90
44121;DHT22;29783;52.504;13.478;2023-05-20T03:37:31;11.20;80.70
44121;DHT22;29783;52.504;13.478;2023-05-20T03:39:56;11.20;80.60
44121;DHT22;29783;52.504;13.478;2023-05-20T03:42:22;11.30;80.50
44121;DHT22;29783;52.504;13.478;2023-05-20T03:44:47;11.30;80.40
44121;DHT22;29783;52.504;13.478;2023-05-20T03:47:15;11.30;80.10
44121;DHT22;29783;52.504;13.478;2023-05-20T03:49:40;11.40;80.00
44121;DHT22;29783;52.504;13.478;2023-05-20T03:52:06;11.30;80.20
44121;DHT22;29783;52.504;13.478;2023-05-20T03:54:32;11.30;80.10
44121;DHT22;29783;52.504;13.478;2023-05-20T03:56:59;11.30;80.30
44121;DHT22;29783;52.504;13.478;2023-05-20T03:59:26;11.30;80.40
44121;DHT22;29783;52.504;13.478;2023-05-20T04:01:52;11.20;80.50
44121;DHT22;29783;52.504;13.478;2023-05-20T04:04:17;11.30;80.40
44121;DHT22;29783;52.504;13.478;2023-05-20T04:06:43;11.20;80.40
44121;DHT22;29783;52.504;13.478;2023-05-20T04:09:09;11.30;80.40
44121;DHT22;29783;52.504;13.478;2023-05-20T04:11:35;11.30;80.40
44121;DHT22;29783;52.504;13.478;2023-05-20T04:14:01;11.40;80.40
44121;DHT22;29783;52.504;13.478;2023-05-20T04:16:26;11.40;80.40
44121;DHT22;29783;52.504;13.478;2023-05-20T04:18:54;11.40;80.30
44121;DHT22;29783;52.504;13.478;2023-05-20T04:21:19;11.40;80.30
44121;DHT22;29783;52.504;13.478;2023-05-20T04:23:45;11.40;80.30
44121;DHT22;29783;52.504;13.478;2023-05-20T04:26:11;11.40;80.30
44121;DHT22;29783;52.504;13.478;2023-05-20T04:28:37;11.50;80.40
44121;DHT22;29783;52.504;13.478;2023-05-20T04:31:03;11.40;80.40
44121;DHT22;29783;52.504;13.478;2023-05-20T04:33:30;11.50;80.30
44121;DHT22;29783;52.504;13.478;2023-05-20T04:35:57;11.60;80.20
44121;DHT22;29783;52.504;13.478;2023-05-20T04:38:24;11.60;80.30
44121;DHT22;29783;52.504;13.478;2023-05-20T04:41:00;11.60;80.40
44121;DHT22;29783;52.504;13.478;2023-05-20T04:43:27;11.50;80.60
44121;DHT22;29783;52.504;13.478;2023-05-20T04:53:47;11.70;80.40
44121;DHT22;29783;52.504;13.478;2023-05-20T04:56:15;11.70;80.40
44121;DHT22;29783;52.504;13.478;2023-05-20T04:58:41;11.80;80.30
44121;DHT22;29783;52.504;13.478;2023-05-20T05:01:07;11.80;80.30
44121;DHT22;29783;52.504;13.478;2023-05-20T05:03:32;11.90;80.20
44121;DHT22;29783;52.504;13.478;2023-05-20T05:05:58;11.90;80.20
44121;DHT22;29783;52.504;13.478;2023-05-20T05:08:24;11.90;80.30
44121;DHT22;29783;52.504;13.478;2023-05-20T05:10:51;12.00;80.10
44121;DHT22;29783;52.504;13.478;2023-05-20T05:13:16;12.00;80.20
44121;DHT22;29783;52.504;13.478;2023-05-20T05:15:42;11.90;80.40
44121;DHT22;29783;52.504;13.478;2023-05-20T05:18:08;12.00;80.40
44121;DHT22;29783;52.504;13.478;2023-05-20T05:20:33;12.00;80.40
44121;DHT22;29783;52.504;13.478;2023-05-20T05:22:59;12.00;80.40
44121;DHT22;29783;52.504;13.478;2023-05-20T05:25:25;12.00;80.70
44121;DHT22;29783;52.504;13.478;2023-05-20T05:27:50;12.00;80.70
44121;DHT22;29783;52.504;13.478;2023-05-20T05:30:16;12.00;80.70
44121;DHT22;29783;52.504;13.478;2023-05-20T05:32:42;12.00;80.80
44121;DHT22;29783;52.504;13.478;2023-05-20T05:35:08;12.00;81.00
44121;DHT22;29783;52.504;13.478;2023-05-20T05:37:33;12.10;80.80
44121;DHT22;29783;52.504;13.478;2023-05-20T05:39:59;12.10;80.70
44121;DHT22;29783;52.504;13.478;2023-05-20T05:42:26;12.10;80.80
44121;DHT22;29783;52.504;13.478;2023-05-20T06:13:42;13.10;78.10
44121;DHT22;29783;52.504;13.478;2023-05-20T06:16:08;13.10;78.30
44121;DHT22;29783;52.504;13.478;2023-05-20T06:18:33;13.10;78.10
44121;DHT22;29783;52.504;13.478;2023-05-20T06:20:59;13.10;78.30
44121;DHT22;29783;52.504;13.478;2023-05-20T06:23:25;13.20;78.20
44121;DHT22;29783;52.504;13.478;2023-05-20T06:25:51;13.20;78.10
44121;DHT22;29783;52.504;13.478;2023-05-20T06:28:17;13.30;77.90
44121;DHT22;29783;52.504;13.478;2023-05-20T06:30:43;13.40;77.40
44121;DHT22;29783;52.504;13.478;2023-05-20T06:33:09;13.40;77.00
44121;DHT22;29783;52.504;13.478;2023-05-20T06:35:35;13.40;77.10
44121;DHT22;29783;52.504;13.478;2023-05-20T06:38:01;13.50;76.80
44121;DHT22;29783;52.504;13.478;2023-05-20T06:40:27;13.60;76.90
44121;DHT22;29783;52.504;13.478;2023-05-20T06:42:53;13.50;77.10
44121;DHT22;29783;52.504;13.478;2023-05-20T06:45:19;13.50;77.10
44121;DHT22;29783;52.504;13.478;2023-05-20T06:47:46;13.50;77.00
44121;DHT22;29783;52.504;13.478;2023-05-20T06:50:13;13.50;77.10
44121;DHT22;29783;52.504;13.478;2023-05-20T06:52:39;13.40;77.20
44121;DHT22;29783;52.504;13.478;2023-05-20T06:55:05;13.60;77.20
44121;DHT22;29783;52.504;13.478;2023-05-20T06:57:31;13.70;76.30
44121;DHT22;29783;52.504;13.478;2023-05-20T06:59:56;13.90;76.00
44121;DHT22;29783;52.504;13.478;2023-05-20T07:02:22;13.80;76.00
44121;DHT22;29783;52.504;13.478;2023-05-20T07:04:48;14.00;75.60
44121;DHT22;29783;52.504;13.478;2023-05-20T07:07:15;14.10;75.10
44121;DHT22;29783;52.504;13.478;2023-05-20T07:09:41;14.10;75.40
44121;DHT22;29783;52.504;13.478;2023-05-20T07:12:07;14.30;74.70
44121;DHT22;29783;52.504;13.478;2023-05-20T07:14:33;14.40;74.20
44121;DHT22;29783;52.504;13.478;2023-05-20T07:16:59;14.50;74.20
44121;DHT22;29783;52.504;13.478;2023-05-20T07:19:24;14.50;73.80
44121;DHT22;29783;52.504;13.478;2023-05-20T07:21:53;14.70;73.20
44121;DHT22;29783;52.504;13.478;2023-05-20T07:24:19;14.70;72.70
44121;DHT22;29783;52.504;13.478;2023-05-20T07:26:45;14.70;73.10
44121;DHT22;29783;52.504;13.478;2023-05-20T07:29:10;14.80;73.00
44121;DHT22;29783;52.504;13.478;2023-05-20T07:31:36;14.90;72.50
44121;DHT22;29783;52.504;13.478;2023-05-20T07:34:02;14.90;72.40
44121;DHT22;29783;52.504;13.478;2023-05-20T07:36:28;15.00;71.80
44121;DHT22;29783;52.504;13.478;2023-05-20T07:38:54;14.80;72.20
44121;DHT22;29783;52.504;13.478;2023-05-20T07:41:19;15.10;71.70
44121;DHT22;29783;52.504;13.478;2023-05-20T07:43:45;15.30;71.00
44121;DHT22;29783;52.504;13.478;2023-05-20T07:46:11;15.40;70.00
44121;DHT22;29783;52.504;13.478;2023-05-20T07:48:37;15.40;69.70
44121;DHT22;29783;52.504;13.478;2023-05-20T07:51:03;15.60;69.50
44121;DHT22;29783;52.504;13.478;2023-05-20T07:53:28;15.70;69.20
44121;DHT22;29783;52.504;13.478;2023-05-20T07:55:54;15.70;68.70
44121;DHT22;29783;52.504;13.478;2023-05-20T07:58:20;16.00;68.20
44121;DHT22;29783;52.504;13.478;2023-05-20T08:00:46;16.30;67.30
44121;DHT22;29783;52.504;13.478;2023-05-20T08:03:15;16.50;66.40
44121;DHT22;29783;52.504;13.478;2023-05-20T08:05:41;16.50;66.20
44121;DHT22;29783;52.504;13.478;2023-05-20T08:08:07;16.70;66.00
44121;DHT22;29783;52.504;13.478;2023-05-20T08:10:35;16.80;65.50
44121;DHT22;29783;52.504;13.478;2023-05-20T08:13:00;17.00;65.00
44121;DHT22;29783;52.504;13.478;2023-05-20T08:15:26;17.10;63.70
44121;DHT22;29783;52.504;13.478;2023-05-20T08:17:52;17.00;64.60
44121;DHT22;29783;52.504;13.478;2023-05-20T08:20:19;17.30;64.10
44121;DHT22;29783;52.504;13.478;2023-05-20T08:22:44;17.30;63.30
44121;DHT22;29783;52.504;13.478;2023-05-20T08:25:10;17.50;63.20
44121;DHT22;29783;52.504;13.478;2023-05-20T08:27:36;17.40;63.00
44121;DHT22;29783;52.504;13.478;2023-05-20T08:30:05;17.60;63.50
44121;DHT22;29783;52.504;13.478;2023-05-20T08:32:34;17.70;62.70
44121;DHT22;29783;52.504;13.478;2023-05-20T08:35:00;18.00;62.00
44121;DHT22;29783;52.504;13.478;2023-05-20T08:37:27;18.00;61.60
44121;DHT22;29783;52.504;13.478;2023-05-20T08:39:53;18.00;61.10
44121;DHT22;29783;52.504;13.478;2023-05-20T08:42:22;17.90;61.60
44121;DHT22;29783;52.504;13.478;2023-05-20T08:44:52;18.00;61.40
44121;DHT22;29783;52.504;13.478;2023-05-20T08:47:21;17.90;61.20
44121;DHT22;29783;52.504;13.478;2023-05-20T08:49:49;17.80;61.60
44121;DHT22;29783;52.504;13.478;2023-05-20T08:52:17;17.90;62.00
44121;DHT22;29783;52.504;13.478;2023-05-20T08:54:47;17.80;61.90
44121;DHT22;29783;52.504;13.478;2023-05-20T08:57:14;17.50;62.40
44121;DHT22;29783;52.504;13.478;2023-05-20T08:59:44;17.10;63.90
44121;DHT22;29783;52.504;13.478;2023-05-20T09:02:11;17.20;63.80
44121;DHT22;29783;52.504;13.478;2023-05-20T09:04:37;17.20;64.20
44121;DHT22;29783;52.504;13.478;2023-05-20T09:07:03;17.30;64.10
44121;DHT22;29783;52.504;13.478;2023-05-20T09:09:29;17.20;64.40
44121;DHT22;29783;52.504;13.478;2023-05-20T09:11:55;17.50;63.80
44121;DHT22;29783;52.504;13.478;2023-05-20T09:14:21;17.40;64.10
44121;DHT22;29783;52.504;13.478;2023-05-20T09:16:48;17.40;64.10
44121;DHT22;29783;52.504;13.478;2023-05-20T09:19:13;17.30;63.80
44121;DHT22;29783;52.504;13.478;2023-05-20T09:21:40;17.50;63.50
44121;DHT22;29783;52.504;13.478;2023-05-20T09:24:06;17.50;63.50
44121;DHT22;29783;52.504;13.478;2023-05-20T09:26:32;17.40;63.20
44121;DHT22;29783;52.504;13.478;2023-05-20T09:28:58;17.50;63.20
44121;DHT22;29783;52.504;13.478;2023-05-20T09:31:29;17.60;63.30
44121;DHT22;29783;52.504;13.478;2023-05-20T09:33:55;17.40;63.30
44121;DHT22;29783;52.504;13.478;2023-05-20T09:36:22;17.40;63.70
44121;DHT22;29783;52.504;13.478;2023-05-20T09:38:51;17.70;62.60
44121;DHT22;29783;52.504;13.478;2023-05-20T09:41:22;17.70;62.60
44121;DHT22;29783;52.504;13.478;2023-05-20T09:43:49;18.10;61.50
44121;DHT22;29783;52.504;13.478;2023-05-20T09:46:16;18.20;61.20
44121;DHT22;29783;52.504;13.478;2023-05-20T09:48:42;18.40;60.80
44121;DHT22;29783;52.504;13.478;2023-05-20T09:51:09;18.20;61.00
44121;DHT22;29783;52.504;13.478;2023-05-20T09:53:36;18.30;61.40
44121;DHT22;29783;52.504;13.478;2023-05-20T09:56:02;18.10;61.70
44121;DHT22;29783;52.504;13.478;2023-05-20T09:58:28;18.10;61.70
44121;DHT22;29783;52.504;13.478;2023-05-20T10:00:54;17.70;62.80
44121;DHT22;29783;52.504;13.478;2023-05-20T10:03:23;17.80;62.90
44121;DHT22;29783;52.504;13.478;2023-05-20T10:09:17;17.70;63.60
44121;DHT22;29783;52.504;13.478;2023-05-20T10:15:15;18.30;61.00
44121;DHT22;29783;52.504;13.478;2023-05-20T10:20:06;18.70;60.20
44121;DHT22;29783;52.504;13.478;2023-05-20T10:22:33;18.50;60.90
44121;DHT22;29783;52.504;13.478;2023-05-20T10:25:03;18.60;60.50
44121;DHT22;29783;52.504;13.478;2023-05-20T10:27:44;18.60;60.00
44121;DHT22;29783;52.504;13.478;2023-05-20T10:30:37;18.90;59.80
44121;DHT22;29783;52.504;13.478;2023-05-20T10:33:04;19.10;58.90
44121;DHT22;29783;52.504;13.478;2023-05-20T10:35:31;19.30;58.20
44121;DHT22;29783;52.504;13.478;2023-05-20T10:38:09;19.50;57.60
44121;DHT22;29783;52.504;13.478;2023-05-20T10:40:35;19.20;57.90
44121;DHT22;29783;52.504;13.478;2023-05-20T10:43:14;19.30;58.40
44121;DHT22;29783;52.504;13.478;2023-05-20T10:48:31;19.40;57.50
44121;DHT22;29783;52.504;13.478;2023-05-20T10:50:58;19.50;57.30
44121;DHT22;29783;52.504;13.478;2023-05-20T10:53:27;19.30;57.90
44121;DHT22;29783;52.504;13.478;2023-05-20T10:55:53;19.30;57.20
44121;DHT22;29783;52.504;13.478;2023-05-20T10:58:23;19.40;57.00
44121;DHT22;29783;52.504;13.478;2023-05-20T11:00:52;19.30;57.00
44121;DHT22;29783;52.504;13.478;2023-05-20T11:03:20;19.10;57.80
44121;DHT22;29783;52.504;13.478;2023-05-20T11:05:47;19.00;58.10
44121;DHT22;29783;52.504;13.478;2023-05-20T11:08:13;18.90;59.20
44121;DHT22;29783;52.504;13.478;2023-05-20T11:10:40;19.00;58.90
44121;DHT22;29783;52.504;13.478;2023-05-20T11:13:05;19.60;57.50
44121;DHT22;29783;52.504;13.478;2023-05-20T11:15:34;20.20;55.80
44121;DHT22;29783;52.504;13.478;2023-05-20T11:18:02;20.80;53.90
44121;DHT22;29783;52.504;13.478;2023-05-20T11:20:29;21.10;53.50
44121;DHT22;29783;52.504;13.478;2023-05-20T11:22:55;21.30;52.70
44121;DHT22;29783;52.504;13.478;2023-05-20T11:25:22;21.00;52.80
44121;DHT22;29783;52.504;13.478;2023-05-20T11:27:49;21.00;53.70
44121;DHT22;29783;52.504;13.478;2023-05-20T11:30:15;21.20;53.10
44121;DHT22;29783;52.504;13.478;2023-05-20T11:33:03;21.20;53.30
44121;DHT22;29783;52.504;13.478;2023-05-20T11:35:30;21.70;52.10
44121;DHT22;29783;52.504;13.478;2023-05-20T11:38:04;22.30;51.10
44121;DHT22;29783;52.504;13.478;2023-05-20T11:40:31;22.70;49.30
44121;DHT22;29783;52.504;13.478;2023-05-20T11:42:59;22.60;49.50
44121;DHT22;29783;52.504;13.478;2023-05-20T11:45:25;22.20;49.90
44121;DHT22;29783;52.504;13.478;2023-05-20T11:48:18;21.90;49.90
44121;DHT22;29783;52.504;13.478;2023-05-20T11:50:45;22.10;50.50
44121;DHT22;29783;52.504;13.478;2023-05-20T11:53:19;21.50;51.40
44121;DHT22;29783;52.504;13.478;2023-05-20T11:55:57;21.70;51.20
44121;DHT22;29783;52.504;13.478;2023-05-20T11:58:25;21.40;51.80
44121;DHT22;29783;52.504;13.478;2023-05-20T12:00:51;21.30;53.00
44121;DHT22;29783;52.504;13.478;2023-05-20T12:03:17;21.20;51.90
44121;DHT22;29783;52.504;13.478;2023-05-20T12:05:43;21.10;53.40
44121;DHT22;29783;52.504;13.478;2023-05-20T12:08:09;21.80;52.10
44121;DHT22;29783;52.504;13.478;2023-05-20T12:10:35;23.00;48.80
44121;DHT22;29783;52.504;13.478;2023-05-20T12:13:02;23.30;48.10
44121;DHT22;29783;52.504;13.478;2023-05-20T12:15:28;23.30;48.10
44121;DHT22;29783;52.504;13.478;2023-05-20T12:17:54;23.70;46.90
44121;DHT22;29783;52.504;13.478;2023-05-20T12:20:22;24.40;45.30
44121;DHT22;29783;52.504;13.478;2023-05-20T12:22:48;24.70;45.10
44121;DHT22;29783;52.504;13.478;2023-05-20T12:25:16;25.20;44.10
44121;DHT22;29783;52.504;13.478;2023-05-20T12:27:44;25.20;43.20
44121;DHT22;29783;52.504;13.478;2023-05-20T12:30:15;25.80;41.80
44121;DHT22;29783;52.504;13.478;2023-05-20T12:32:41;26.20;41.00
44121;DHT22;29783;52.504;13.478;2023-05-20T12:35:08;26.90;39.10
44121;DHT22;29783;52.504;13.478;2023-05-20T12:37:34;26.40;39.90
44121;DHT22;29783;52.504;13.478;2023-05-20T12:40:00;24.30;43.90
44121;DHT22;29783;52.504;13.478;2023-05-20T12:42:26;23.50;46.20
44121;DHT22;29783;52.504;13.478;2023-05-20T12:44:52;23.60;46.50
44121;DHT22;29783;52.504;13.478;2023-05-20T12:47:19;24.00;45.60
44121;DHT22;29783;52.504;13.478;2023-05-20T12:49:44;25.20;43.70
44121;DHT22;29783;52.504;13.478;2023-05-20T12:59:04;27.60;39.00
44121;DHT22;29783;52.504;13.478;2023-05-20T13:01:31;28.00;38.00
44121;DHT22;29783;52.504;13.478;2023-05-20T13:03:57;27.10;38.90
44121;DHT22;29783;52.504;13.478;2023-05-20T13:06:23;26.50;40.10
44121;DHT22;29783;52.504;13.478;2023-05-20T13:08:48;25.40;42.50
44121;DHT22;29783;52.504;13.478;2023-05-20T13:11:14;24.80;43.20
44121;DHT22;29783;52.504;13.478;2023-05-20T13:13:40;23.70;45.80
44121;DHT22;29783;52.504;13.478;2023-05-20T13:16:05;23.20;47.10
44121;DHT22;29783;52.504;13.478;2023-05-20T13:18:31;22.80;48.20
44121;DHT22;29783;52.504;13.478;2023-05-20T13:20:57;23.30;48.30
44121;DHT22;29783;52.504;13.478;2023-05-20T13:23:22;24.50;44.90
44121;DHT22;29783;52.504;13.478;2023-05-20T13:25:48;25.70;42.90
44121;DHT22;29783;52.504;13.478;2023-05-20T13:28:13;26.30;41.50
44121;DHT22;29783;52.504;13.478;2023-05-20T13:30:42;26.90;40.50
44121;DHT22;29783;52.504;13.478;2023-05-20T13:33:08;27.80;38.70
44121;DHT22;29783;52.504;13.478;2023-05-20T13:35:33;28.70;37.10
44121;DHT22;29783;52.504;13.478;2023-05-20T13:37:59;29.20;35.80
44121;DHT22;29783;52.504;13.478;2023-05-20T13:40:25;29.00;36.40
44121;DHT22;29783;52.504;13.478;2023-05-20T13:42:50;28.30;37.70
44121;DHT22;29783;52.504;13.478;2023-05-20T13:51:13;27.10;39.80
44121;DHT22;29783;52.504;13.478;2023-05-20T13:53:39;27.80;38.60
44121;DHT22;29783;52.504;13.478;2023-05-20T13:56:05;28.40;37.20
44121;DHT22;29783;52.504;13.478;2023-05-20T13:58:36;29.10;36.30
44121;DHT22;29783;52.504;13.478;2023-05-20T14:01:03;28.90;36.80
44121;DHT22;29783;52.504;13.478;2023-05-20T14:03:29;29.20;35.90
44121;DHT22;29783;52.504;13.478;2023-05-20T14:05:55;28.90;36.70
44121;DHT22;29783;52.504;13.478;2023-05-20T14:08:21;29.20;35.80
44121;DHT22;29783;52.504;13.478;2023-05-20T14:10:47;28.80;36.90
44121;DHT22;29783;52.504;13.478;2023-05-20T14:13:13;29.10;35.80
44121;DHT22;29783;52.504;13.478;2023-05-20T14:15:38;29.00;36.80
44121;DHT22;29783;52.504;13.478;2023-05-20T14:18:04;29.80;35.10
44121;DHT22;29783;52.504;13.478;2023-05-20T14:20:30;29.90;35.10
44121;DHT22;29783;52.504;13.478;2023-05-20T14:22:55;29.10;36.40
44121;DHT22;29783;52.504;13.478;2023-05-20T14:25:21;29.30;36.20
44121;DHT22;29783;52.504;13.478;2023-05-20T14:27:48;30.10;34.80
44121;DHT22;29783;52.504;13.478;2023-05-20T14:30:13;29.70;35.10
44121;DHT22;29783;52.504;13.478;2023-05-20T14:32:39;29.60;35.50
44121;DHT22;29783;52.504;13.478;2023-05-20T14:35:05;29.30;35.70
44121;DHT22;29783;52.504;13.478;2023-05-20T14:37:31;29.10;36.20
44121;DHT22;29783;52.504;13.478;2023-05-20T14:39:56;29.40;35.70
44121;DHT22;29783;52.504;13.478;2023-05-20T14:42:22;29.70;35.30
44121;DHT22;29783;52.504;13.478;2023-05-20T14:44:48;30.10;34.90
44121;DHT22;29783;52.504;13.478;2023-05-20T14:47:13;29.90;35.30
44121;DHT22;29783;52.504;13.478;2023-05-20T14:49:46;30.10;34.80
44121;DHT22;29783;52.504;13.478;2023-05-20T14:52:13;30.00;35.00
44121;DHT22;29783;52.504;13.478;2023-05-20T14:54:39;29.30;36.10
44121;DHT22;29783;52.504;13.478;2023-05-20T14:57:05;28.90;36.80
44121;DHT22;29783;52.504;13.478;2023-05-20T14:59:31;29.10;36.40
44121;DHT22;29783;52.504;13.478;2023-05-20T15:01:56;29.20;36.30
44121;DHT22;29783;52.504;13.478;2023-05-20T15:04:22;29.20;36.60
44121;DHT22;29783;52.504;13.478;2023-05-20T15:06:48;29.50;36.10
44121;DHT22;29783;52.504;13.478;2023-05-20T15:09:13;29.20;36.50
44121;DHT22;29783;52.504;13.478;2023-05-20T15:11:39;29.70;35.70
44121;DHT22;29783;52.504;13.478;2023-05-20T15:14:05;30.10;35.00
44121;DHT22;29783;52.504;13.478;2023-05-20T15:16:30;30.20;34.80
44121;DHT22;29783;52.504;13.478;2023-05-20T15:18:56;30.00;35.30
44121;DHT22;29783;52.504;13.478;2023-05-20T15:21:21;29.90;35.50
44121;DHT22;29783;52.504;13.478;2023-05-20T15:23:47;30.20;35.00
44121;DHT22;29783;52.504;13.478;2023-05-20T15:26:13;30.30;34.70
44121;DHT22;29783;52.504;13.478;2023-05-20T15:28:39;30.40;34.90
44121;DHT22;29783;52.504;13.478;2023-05-20T15:31:05;30.50;34.40
44121;DHT22;29783;52.504;13.478;2023-05-20T15:33:31;30.60;34.30
44121;DHT22;29783;52.504;13.478;2023-05-20T15:35:56;30.50;34.40
44121;DHT22;29783;52.504;13.478;2023-05-20T15:38:22;30.60;34.50
44121;DHT22;29783;52.504;13.478;2023-05-20T15:40:48;29.90;35.60
44121;DHT22;29783;52.504;13.478;2023-05-20T15:43:17;30.10;35.20
44121;DHT22;29783;52.504;13.478;2023-05-20T15:45:44;30.00;35.60
44121;DHT22;29783;52.504;13.478;2023-05-20T15:48:11;30.00;35.90
44121;DHT22;29783;52.504;13.478;2023-05-20T15:50:37;30.30;35.20
44121;DHT22;29783;52.504;13.478;2023-05-20T15:53:07;30.50;35.20
44121;DHT22;29783;52.504;13.478;2023-05-20T15:55:33;30.50;34.80
44121;DHT22;29783;52.504;13.478;2023-05-20T15:57:59;30.00;35.80
44121;DHT22;29783;52.504;13.478;2023-05-20T16:00:25;30.00;35.80
44121;DHT22;29783;52.504;13.478;2023-05-20T16:02:50;29.80;36.00
44121;DHT22;29783;52.504;13.478;2023-05-20T16:05:18;29.50;36.80
44121;DHT22;29783;52.504;13.478;2023-05-20T16:07:46;29.50;37.10
44121;DHT22;29783;52.504;13.478;2023-05-20T16:10:12;30.50;35.10
44121;DHT22;29783;52.504;13.478;2023-05-20T16:12:38;30.00;35.60
44121;DHT22;29783;52.504;13.478;2023-05-20T16:15:04;29.50;36.80
44121;DHT22;29783;52.504;13.478;2023-05-20T16:17:29;29.70;36.50
44121;DHT22;29783;52.504;13.478;2023-05-20T16:19:55;29.80;36.20
44121;DHT22;29783;52.504;13.478;2023-05-20T16:22:21;29.90;36.20
44121;DHT22;29783;52.504;13.478;2023-05-20T16:24:46;30.00;36.10
44121;DHT22;29783;52.504;13.478;2023-05-20T16:27:13;29.70;36.90
44121;DHT22;29783;52.504;13.478;2023-05-20T16:29:40;30.30;35.60